sensor_id;sensor_type;location;lat;lon;timestamp;pressure;altitude;pressure_sealevel;temperature;humidity
46846;BME280;33947;46.804;134.252;2022-07-06T00:00:32;100457.88;;;27.16;74.59
46846;BME280;33947;46.804;134.252;2022-07-06T00:03:38;100458.41;;;27.48;73.42
46846;BME280;33947;46.804;134.252;2022-07-06T00:06:43;100455.34;;;27.33;73.64
46846;BME280;33947;46.804;134.252;2022-07-06T00:09:48;100449.47;;;27.28;73.47
46846;BME280;33947;46.804;134.252;2022-07-06T00:12:53;100467.59;;;27.47;73.34
46846;BME280;33947;46.804;134.252;2022-07-06T00:15:57;100448.81;;;28.35;69.29
46846;BME280;33947;46.804;134.252;2022-07-06T00:19:02;100458.69;;;28.62;68.00
46846;BME280;33947;46.804;134.252;2022-07-06T00:22:06;100463.69;;;28.67;67.90
46846;BME280;33947;46.804;134.252;2022-07-06T00:25:11;100462.47;;;28.96;66.43
46846;BME280;33947;46.804;134.252;2022-07-06T00:28:15;100471.44;;;29.14;65.38
46846;BME280;33947;46.804;134.252;2022-07-06T00:31:20;100450.91;;;29.02;66.02
46846;BME280;33947;46.804;134.252;2022-07-06T00:34:24;100462.56;;;29.12;66.07
46846;BME280;33947;46.804;134.252;2022-07-06T00:37:30;100442.31;;;30.64;61.06
46846;BME280;33947;46.804;134.252;2022-07-06T00:40:34;100453.72;;;32.49;58.40
46846;BME280;33947;46.804;134.252;2022-07-06T00:43:56;100449.34;;;33.00;54.00
46846;BME280;33947;46.804;134.252;2022-07-06T00:47:02;100446.88;;;33.05;53.69
46846;BME280;33947;46.804;134.252;2022-07-06T00:50:09;100452.94;;;33.15;52.66
46846;BME280;33947;46.804;134.252;2022-07-06T00:53:25;100427.81;;;33.40;52.06
46846;BME280;33947;46.804;134.252;2022-07-06T00:56:31;100449.56;;;33.94;51.00
46846;BME280;33947;46.804;134.252;2022-07-06T00:59:36;100437.56;;;33.58;51.62
46846;BME280;33947;46.804;134.252;2022-07-06T01:02:40;100453.41;;;33.77;51.13
46846;BME280;33947;46.804;134.252;2022-07-06T01:05:45;100449.28;;;33.88;51.06
46846;BME280;33947;46.804;134.252;2022-07-06T01:08:50;100446.44;;;33.75;50.96
46846;BME280;33947;46.804;134.252;2022-07-06T01:11:55;100451.75;;;33.98;50.07
46846;BME280;33947;46.804;134.252;2022-07-06T01:14:59;100440.44;;;33.93;50.60
46846;BME280;33947;46.804;134.252;2022-07-06T01:18:04;100443.72;;;34.60;49.05
46846;BME280;33947;46.804;134.252;2022-07-06T01:21:13;100442.56;;;35.18;47.54
46846;BME280;33947;46.804;134.252;2022-07-06T01:24:18;100450.31;;;35.50;47.60
46846;BME280;33947;46.804;134.252;2022-07-06T01:27:23;100440.44;;;35.20;48.00
46846;BME280;33947;46.804;134.252;2022-07-06T01:30:28;100445.56;;;35.30;47.57
46846;BME280;33947;46.804;134.252;2022-07-06T01:33:32;100421.22;;;35.74;47.32
46846;BME280;33947;46.804;134.252;2022-07-06T01:36:37;100436.09;;;35.53;46.90
46846;BME280;33947;46.804;134.252;2022-07-06T01:39:41;100422.41;;;35.38;46.99
46846;BME280;33947;46.804;134.252;2022-07-06T01:42:46;100428.28;;;35.01;47.75
46846;BME280;33947;46.804;134.252;2022-07-06T01:45:54;100413.00;;;35.05;47.89
46846;BME280;33947;46.804;134.252;2022-07-06T01:48:59;100418.19;;;35.35;46.96
46846;BME280;33947;46.804;134.252;2022-07-06T01:52:04;100414.31;;;35.23;47.07
46846;BME280;33947;46.804;134.252;2022-07-06T01:55:08;100402.09;;;35.53;46.85
46846;BME280;33947;46.804;134.252;2022-07-06T01:58:14;100419.53;;;35.60;45.61
46846;BME280;33947;46.804;134.252;2022-07-06T02:01:20;100405.78;;;35.04;47.11
46846;BME280;33947;46.804;134.252;2022-07-06T02:04:25;100424.25;;;35.11;47.65
46846;BME280;33947;46.804;134.252;2022-07-06T02:07:30;100430.19;;;34.66;47.84
46846;BME280;33947;46.804;134.252;2022-07-06T02:10:36;100427.97;;;34.47;48.19
46846;BME280;33947;46.804;134.252;2022-07-06T02:13:41;100416.28;;;34.17;48.56
46846;BME280;33947;46.804;134.252;2022-07-06T02:17:06;100427.78;;;34.27;50.23
46846;BME280;33947;46.804;134.252;2022-07-06T02:20:11;100419.00;;;34.10;50.06
46846;BME280;33947;46.804;134.252;2022-07-06T02:23:16;100420.88;;;34.10;49.70
46846;BME280;33947;46.804;134.252;2022-07-06T02:26:21;100416.44;;;33.43;52.18
46846;BME280;33947;46.804;134.252;2022-07-06T02:29:26;100431.13;;;33.72;51.79
46846;BME280;33947;46.804;134.252;2022-07-06T02:32:32;100432.97;;;33.28;52.40
46846;BME280;33947;46.804;134.252;2022-07-06T02:35:37;100413.03;;;32.89;52.74
46846;BME280;33947;46.804;134.252;2022-07-06T02:38:47;100423.75;;;33.36;51.35
46846;BME280;33947;46.804;134.252;2022-07-06T02:41:52;100421.84;;;33.37;51.42
46846;BME280;33947;46.804;134.252;2022-07-06T02:44:57;100410.97;;;33.13;52.93
46846;BME280;33947;46.804;134.252;2022-07-06T02:48:04;100409.72;;;32.49;54.13
46846;BME280;33947;46.804;134.252;2022-07-06T02:51:10;100404.44;;;32.24;55.01
46846;BME280;33947;46.804;134.252;2022-07-06T02:54:15;100403.63;;;32.39;54.61
46846;BME280;33947;46.804;134.252;2022-07-06T02:57:20;100392.56;;;32.32;54.42
46846;BME280;33947;46.804;134.252;2022-07-06T03:00:25;100399.66;;;31.88;55.80
46846;BME280;33947;46.804;134.252;2022-07-06T03:03:31;100397.13;;;31.55;56.80
46846;BME280;33947;46.804;134.252;2022-07-06T03:06:37;100402.94;;;31.60;56.33
46846;BME280;33947;46.804;134.252;2022-07-06T03:09:42;100380.78;;;31.85;55.10
46846;BME280;33947;46.804;134.252;2022-07-06T03:12:47;100391.78;;;31.38;56.11
46846;BME280;33947;46.804;134.252;2022-07-06T03:15:52;100379.00;;;30.90;58.09
46846;BME280;33947;46.804;134.252;2022-07-06T03:18:57;100387.19;;;30.99;57.35
46846;BME280;33947;46.804;134.252;2022-07-06T03:22:03;100385.78;;;31.03;58.00
46846;BME280;33947;46.804;134.252;2022-07-06T03:25:08;100376.00;;;30.69;58.38
46846;BME280;33947;46.804;134.252;2022-07-06T03:28:15;100364.78;;;30.39;58.62
46846;BME280;33947;46.804;134.252;2022-07-06T03:31:19;100372.28;;;30.45;58.56
46846;BME280;33947;46.804;134.252;2022-07-06T03:34:24;100383.25;;;30.53;58.57
46846;BME280;33947;46.804;134.252;2022-07-06T03:37:29;100372.75;;;30.57;58.05
46846;BME280;33947;46.804;134.252;2022-07-06T03:40:34;100374.88;;;30.95;57.65
46846;BME280;33947;46.804;134.252;2022-07-06T03:43:39;100368.16;;;30.66;57.96
46846;BME280;33947;46.804;134.252;2022-07-06T03:46:44;100368.81;;;30.68;58.68
46846;BME280;33947;46.804;134.252;2022-07-06T03:49:49;100379.22;;;30.81;58.79
46846;BME280;33947;46.804;134.252;2022-07-06T03:52:54;100365.66;;;30.79;57.80
46846;BME280;33947;46.804;134.252;2022-07-06T03:55:58;100346.03;;;30.59;57.59
46846;BME280;33947;46.804;134.252;2022-07-06T03:59:23;100375.13;;;30.77;58.63
46846;BME280;33947;46.804;134.252;2022-07-06T04:02:29;100373.31;;;30.92;58.07
46846;BME280;33947;46.804;134.252;2022-07-06T04:05:34;100372.84;;;30.88;59.11
46846;BME280;33947;46.804;134.252;2022-07-06T04:08:39;100367.88;;;31.15;58.25
46846;BME280;33947;46.804;134.252;2022-07-06T04:11:43;100383.63;;;30.90;59.35
46846;BME280;33947;46.804;134.252;2022-07-06T04:14:48;100373.00;;;30.87;58.72
46846;BME280;33947;46.804;134.252;2022-07-06T04:17:53;100366.63;;;30.95;57.46
46846;BME280;33947;46.804;134.252;2022-07-06T04:21:02;100362.81;;;31.04;57.39
46846;BME280;33947;46.804;134.252;2022-07-06T04:24:10;100359.13;;;30.88;58.23
46846;BME280;33947;46.804;134.252;2022-07-06T04:27:15;100355.88;;;30.85;59.16
46846;BME280;33947;46.804;134.252;2022-07-06T04:30:21;100358.50;;;31.10;58.99
46846;BME280;33947;46.804;134.252;2022-07-06T04:33:25;100352.09;;;30.86;59.49
46846;BME280;33947;46.804;134.252;2022-07-06T04:36:30;100339.91;;;30.49;60.58
46846;BME280;33947;46.804;134.252;2022-07-06T04:39:35;100347.06;;;30.98;59.30
46846;BME280;33947;46.804;134.252;2022-07-06T04:42:40;100355.09;;;31.08;59.70
46846;BME280;33947;46.804;134.252;2022-07-06T04:45:45;100327.66;;;30.76;58.73
46846;BME280;33947;46.804;134.252;2022-07-06T04:48:49;100347.16;;;30.81;59.11
46846;BME280;33947;46.804;134.252;2022-07-06T04:51:59;100339.28;;;30.78;59.76
46846;BME280;33947;46.804;134.252;2022-07-06T04:55:05;100335.91;;;30.68;60.25
46846;BME280;33947;46.804;134.252;2022-07-06T04:58:12;100339.53;;;30.60;60.21
46846;BME280;33947;46.804;134.252;2022-07-06T05:01:17;100337.50;;;30.54;60.66
46846;BME280;33947;46.804;134.252;2022-07-06T05:04:22;100323.31;;;30.50;61.02
46846;BME280;33947;46.804;134.252;2022-07-06T05:07:29;100327.75;;;30.51;61.11
46846;BME280;33947;46.804;134.252;2022-07-06T05:10:37;100317.13;;;30.48;61.37
46846;BME280;33947;46.804;134.252;2022-07-06T05:13:43;100326.50;;;30.14;61.83
46846;BME280;33947;46.804;134.252;2022-07-06T05:16:48;100306.69;;;29.87;62.45
46846;BME280;33947;46.804;134.252;2022-07-06T05:19:52;100315.56;;;29.72;63.25
46846;BME280;33947;46.804;134.252;2022-07-06T05:22:58;100319.34;;;29.71;64.00
46846;BME280;33947;46.804;134.252;2022-07-06T05:26:07;100305.84;;;29.53;63.88
46846;BME280;33947;46.804;134.252;2022-07-06T05:29:12;100315.25;;;29.51;64.26
46846;BME280;33947;46.804;134.252;2022-07-06T05:32:18;100324.81;;;29.71;64.48
46846;BME280;33947;46.804;134.252;2022-07-06T05:35:23;100299.19;;;29.48;64.26
46846;BME280;33947;46.804;134.252;2022-07-06T05:38:48;100304.31;;;29.51;64.98
46846;BME280;33947;46.804;134.252;2022-07-06T05:41:52;100312.34;;;29.44;64.84
46846;BME280;33947;46.804;134.252;2022-07-06T05:44:57;100306.19;;;29.50;64.65
46846;BME280;33947;46.804;134.252;2022-07-06T05:48:04;100302.94;;;29.55;64.41
46846;BME280;33947;46.804;134.252;2022-07-06T05:51:29;100291.28;;;29.86;63.83
46846;BME280;33947;46.804;134.252;2022-07-06T05:54:33;100302.41;;;30.01;66.36
46846;BME280;33947;46.804;134.252;2022-07-06T05:57:38;100300.47;;;30.18;62.41
46846;BME280;33947;46.804;134.252;2022-07-06T06:00:44;100284.56;;;30.13;62.74
46846;BME280;33947;46.804;134.252;2022-07-06T06:03:53;100289.47;;;30.26;63.35
46846;BME280;33947;46.804;134.252;2022-07-06T06:06:57;100284.03;;;30.18;63.54
46846;BME280;33947;46.804;134.252;2022-07-06T06:10:08;100282.50;;;30.15;63.34
46846;BME280;33947;46.804;134.252;2022-07-06T06:13:13;100280.63;;;30.08;63.49
46846;BME280;33947;46.804;134.252;2022-07-06T06:16:18;100285.25;;;29.99;63.88
46846;BME280;33947;46.804;134.252;2022-07-06T06:19:22;100284.44;;;29.73;64.65
46846;BME280;33947;46.804;134.252;2022-07-06T06:22:27;100281.88;;;29.80;63.83
46846;BME280;33947;46.804;134.252;2022-07-06T06:25:38;100288.53;;;29.86;64.61
46846;BME280;33947;46.804;134.252;2022-07-06T06:28:43;100279.47;;;29.77;65.59
46846;BME280;33947;46.804;134.252;2022-07-06T06:31:47;100277.13;;;29.66;66.22
46846;BME280;33947;46.804;134.252;2022-07-06T06:34:52;100291.09;;;29.87;66.32
46846;BME280;33947;46.804;134.252;2022-07-06T06:37:57;100289.56;;;30.01;66.62
46846;BME280;33947;46.804;134.252;2022-07-06T06:41:02;100261.66;;;30.06;66.91
46846;BME280;33947;46.804;134.252;2022-07-06T06:44:07;100290.53;;;30.57;65.59
46846;BME280;33947;46.804;134.252;2022-07-06T06:47:16;100276.94;;;30.72;65.70
46846;BME280;33947;46.804;134.252;2022-07-06T06:50:20;100288.34;;;30.60;65.36
46846;BME280;33947;46.804;134.252;2022-07-06T06:53:27;100287.28;;;30.61;65.48
46846;BME280;33947;46.804;134.252;2022-07-06T06:56:36;100285.59;;;30.52;65.86
46846;BME280;33947;46.804;134.252;2022-07-06T06:59:41;100258.47;;;30.34;66.40
46846;BME280;33947;46.804;134.252;2022-07-06T07:02:46;100268.91;;;30.30;66.89
46846;BME280;33947;46.804;134.252;2022-07-06T07:05:51;100276.25;;;30.38;66.74
46846;BME280;33947;46.804;134.252;2022-07-06T07:08:55;100264.84;;;30.18;67.25
46846;BME280;33947;46.804;134.252;2022-07-06T07:12:00;100258.34;;;30.11;66.92
46846;BME280;33947;46.804;134.252;2022-07-06T07:15:04;100274.84;;;29.86;68.68
46846;BME280;33947;46.804;134.252;2022-07-06T07:18:09;100263.72;;;30.04;67.08
46846;BME280;33947;46.804;134.252;2022-07-06T07:21:18;100266.59;;;29.94;67.14
46846;BME280;33947;46.804;134.252;2022-07-06T07:24:23;100265.59;;;29.87;68.48
46846;BME280;33947;46.804;134.252;2022-07-06T07:27:27;100267.34;;;29.63;69.24
46846;BME280;33947;46.804;134.252;2022-07-06T07:30:32;100262.16;;;30.01;68.01
46846;BME280;33947;46.804;134.252;2022-07-06T08:06:20;100235.22;;;29.57;68.67
46846;BME280;33947;46.804;134.252;2022-07-06T08:09:26;100237.41;;;29.70;66.99
46846;BME280;33947;46.804;134.252;2022-07-06T08:12:31;100240.66;;;29.65;68.26
46846;BME280;33947;46.804;134.252;2022-07-06T08:15:37;100232.81;;;29.62;67.90
46846;BME280;33947;46.804;134.252;2022-07-06T08:18:41;100238.13;;;29.64;68.41
46846;BME280;33947;46.804;134.252;2022-07-06T08:21:47;100247.13;;;29.72;67.12
46846;BME280;33947;46.804;134.252;2022-07-06T08:24:51;100226.97;;;29.65;67.03
46846;BME280;33947;46.804;134.252;2022-07-06T08:27:55;100236.38;;;29.71;67.80
46846;BME280;33947;46.804;134.252;2022-07-06T08:30:59;100241.56;;;29.41;68.75
46846;BME280;33947;46.804;134.252;2022-07-06T08:34:04;100224.97;;;29.51;68.19
46846;BME280;33947;46.804;134.252;2022-07-06T08:37:09;100227.34;;;29.54;68.41
46846;BME280;33947;46.804;134.252;2022-07-06T08:40:14;100234.16;;;29.33;68.90
46846;BME280;33947;46.804;134.252;2022-07-06T08:43:18;100228.22;;;29.46;68.84
46846;BME280;33947;46.804;134.252;2022-07-06T08:46:24;100233.66;;;29.63;68.11
46846;BME280;33947;46.804;134.252;2022-07-06T08:49:31;100233.16;;;29.59;67.94
46846;BME280;33947;46.804;134.252;2022-07-06T08:52:37;100222.91;;;29.53;67.24
46846;BME280;33947;46.804;134.252;2022-07-06T08:55:43;100224.09;;;29.50;67.88
46846;BME280;33947;46.804;134.252;2022-07-06T08:58:48;100215.56;;;29.45;67.82
46846;BME280;33947;46.804;134.252;2022-07-06T09:01:54;100209.22;;;29.28;68.27
46846;BME280;33947;46.804;134.252;2022-07-06T09:05:00;100216.22;;;29.30;68.11
46846;BME280;33947;46.804;134.252;2022-07-06T09:08:06;100219.16;;;29.37;68.12
46846;BME280;33947;46.804;134.252;2022-07-06T09:11:10;100216.41;;;29.37;68.02
46846;BME280;33947;46.804;134.252;2022-07-06T09:14:16;100221.34;;;29.34;68.11
46846;BME280;33947;46.804;134.252;2022-07-06T09:17:23;100222.91;;;29.36;68.30
46846;BME280;33947;46.804;134.252;2022-07-06T09:20:29;100226.50;;;29.28;68.80
46846;BME280;33947;46.804;134.252;2022-07-06T09:23:36;100225.63;;;29.20;69.08
46846;BME280;33947;46.804;134.252;2022-07-06T09:26:41;100222.75;;;29.21;69.15
46846;BME280;33947;46.804;134.252;2022-07-06T09:29:46;100225.63;;;29.20;68.99
46846;BME280;33947;46.804;134.252;2022-07-06T09:32:52;100230.25;;;29.11;69.36
46846;BME280;33947;46.804;134.252;2022-07-06T09:35:57;100217.44;;;29.03;68.61
46846;BME280;33947;46.804;134.252;2022-07-06T09:39:19;100222.72;;;28.96;68.19
46846;BME280;33947;46.804;134.252;2022-07-06T09:42:25;100229.56;;;28.92;69.16
46846;BME280;33947;46.804;134.252;2022-07-06T09:45:30;100223.41;;;28.82;69.16
46846;BME280;33947;46.804;134.252;2022-07-06T09:48:40;100238.94;;;28.81;68.87
46846;BME280;33947;46.804;134.252;2022-07-06T09:51:46;100239.59;;;28.75;68.99
46846;BME280;33947;46.804;134.252;2022-07-06T09:54:51;100250.69;;;28.73;69.15
46846;BME280;33947;46.804;134.252;2022-07-06T09:57:56;100243.97;;;28.59;69.17
46846;BME280;33947;46.804;134.252;2022-07-06T10:01:00;100247.03;;;28.48;69.50
46846;BME280;33947;46.804;134.252;2022-07-06T10:04:06;100254.41;;;28.48;69.92
46846;BME280;33947;46.804;134.252;2022-07-06T10:07:11;100254.53;;;28.38;70.42
46846;BME280;33947;46.804;134.252;2022-07-06T10:10:16;100246.97;;;28.23;71.00
46846;BME280;33947;46.804;134.252;2022-07-06T10:13:23;100247.38;;;28.10;71.84
46846;BME280;33947;46.804;134.252;2022-07-06T10:16:29;100256.03;;;27.97;72.36
46846;BME280;33947;46.804;134.252;2022-07-06T10:19:34;100253.41;;;27.87;72.88
46846;BME280;33947;46.804;134.252;2022-07-06T10:22:40;100261.38;;;27.81;73.20
46846;BME280;33947;46.804;134.252;2022-07-06T10:25:45;100267.09;;;27.69;73.46
46846;BME280;33947;46.804;134.252;2022-07-06T10:28:52;100252.78;;;27.49;74.59
46846;BME280;33947;46.804;134.252;2022-07-06T10:31:57;100268.91;;;27.42;75.39
46846;BME280;33947;46.804;134.252;2022-07-06T10:35:04;100265.13;;;27.35;75.84
46846;BME280;33947;46.804;134.252;2022-07-06T10:38:09;100259.91;;;27.24;75.28
46846;BME280;33947;46.804;134.252;2022-07-06T10:41:14;100268.63;;;27.27;74.66
46846;BME280;33947;46.804;134.252;2022-07-06T10:44:25;100274.34;;;27.16;75.45
46846;BME280;33947;46.804;134.252;2022-07-06T10:47:30;100268.94;;;27.06;75.74
46846;BME280;33947;46.804;134.252;2022-07-06T10:50:35;100238.22;;;26.68;76.73
46846;BME280;33947;46.804;134.252;2022-07-06T10:53:40;100266.81;;;26.82;77.45
46846;BME280;33947;46.804;134.252;2022-07-06T10:56:50;100279.91;;;26.78;77.09
46846;BME280;33947;46.804;134.252;2022-07-06T11:00:04;100262.22;;;26.64;76.05
46846;BME280;33947;46.804;134.252;2022-07-06T11:06:38;100288.88;;;26.61;75.22
46846;BME280;33947;46.804;134.252;2022-07-06T11:09:58;100285.69;;;26.47;74.92
46846;BME280;33947;46.804;134.252;2022-07-06T11:13:04;100272.06;;;26.19;76.04
46846;BME280;33947;46.804;134.252;2022-07-06T11:16:09;100260.63;;;26.06;76.21
46846;BME280;33947;46.804;134.252;2022-07-06T11:19:21;100293.28;;;26.15;76.00
46846;BME280;33947;46.804;134.252;2022-07-06T11:22:29;100293.84;;;26.19;76.21
46846;BME280;33947;46.804;134.252;2022-07-06T11:25:35;100294.53;;;26.21;76.66
46846;BME280;33947;46.804;134.252;2022-07-06T11:28:40;100296.66;;;26.27;77.00
46846;BME280;33947;46.804;134.252;2022-07-06T11:31:45;100294.19;;;25.96;78.94
46846;BME280;33947;46.804;134.252;2022-07-06T11:34:50;100309.22;;;26.00;78.07
46846;BME280;33947;46.804;134.252;2022-07-06T11:37:54;100311.06;;;25.90;78.74
46846;BME280;33947;46.804;134.252;2022-07-06T11:40:59;100320.59;;;25.56;82.02
46846;BME280;33947;46.804;134.252;2022-07-06T11:44:04;100299.72;;;25.47;80.50
46846;BME280;33947;46.804;134.252;2022-07-06T11:47:09;100327.28;;;25.33;84.54
46846;BME280;33947;46.804;134.252;2022-07-06T11:50:20;100317.28;;;25.43;82.26
46846;BME280;33947;46.804;134.252;2022-07-06T11:53:25;100334.34;;;25.55;81.97
46846;BME280;33947;46.804;134.252;2022-07-06T11:56:30;100327.34;;;25.52;82.01
46846;BME280;33947;46.804;134.252;2022-07-06T11:59:36;100323.44;;;25.45;82.07
46846;BME280;33947;46.804;134.252;2022-07-06T12:03:01;100324.44;;;25.34;82.67
46846;BME280;33947;46.804;134.252;2022-07-06T12:06:12;100327.75;;;25.57;81.74
46846;BME280;33947;46.804;134.252;2022-07-06T12:09:17;100328.88;;;25.45;82.56
46846;BME280;33947;46.804;134.252;2022-07-06T12:12:24;100314.41;;;25.35;82.50
46846;BME280;33947;46.804;134.252;2022-07-06T12:15:29;100293.25;;;25.19;83.04
46846;BME280;33947;46.804;134.252;2022-07-06T12:18:38;100303.28;;;25.28;83.02
46846;BME280;33947;46.804;134.252;2022-07-06T12:24:48;100299.25;;;25.22;84.25
46846;BME280;33947;46.804;134.252;2022-07-06T12:27:53;100299.97;;;25.24;84.42
46846;BME280;33947;46.804;134.252;2022-07-06T12:30:57;100302.41;;;25.18;84.78
46846;BME280;33947;46.804;134.252;2022-07-06T12:34:03;100307.41;;;25.12;85.09
46846;BME280;33947;46.804;134.252;2022-07-06T12:37:09;100320.16;;;25.22;84.59
46846;BME280;33947;46.804;134.252;2022-07-06T12:40:15;100321.28;;;25.09;84.98
46846;BME280;33947;46.804;134.252;2022-07-06T12:43:37;100319.41;;;25.00;86.23
46846;BME280;33947;46.804;134.252;2022-07-06T12:46:42;100317.41;;;24.82;85.94
46846;BME280;33947;46.804;134.252;2022-07-06T12:49:47;100327.09;;;24.75;86.56
46846;BME280;33947;46.804;134.252;2022-07-06T12:52:51;100299.16;;;24.63;86.62
46846;BME280;33947;46.804;134.252;2022-07-06T12:56:13;100313.03;;;24.70;87.20
46846;BME280;33947;46.804;134.252;2022-07-06T12:59:22;100312.03;;;24.71;86.50
46846;BME280;33947;46.804;134.252;2022-07-06T13:02:30;100310.47;;;24.68;86.48
46846;BME280;33947;46.804;134.252;2022-07-06T13:05:55;100307.28;;;24.53;87.48
46846;BME280;33947;46.804;134.252;2022-07-06T13:08:59;100295.50;;;24.43;87.76
46846;BME280;33947;46.804;134.252;2022-07-06T13:12:04;100298.69;;;24.48;87.38
46846;BME280;33947;46.804;134.252;2022-07-06T13:15:09;100307.56;;;24.19;89.39
46846;BME280;33947;46.804;134.252;2022-07-06T13:18:13;100293.94;;;24.40;87.55
46846;BME280;33947;46.804;134.252;2022-07-06T13:21:19;100275.47;;;24.24;87.80
46846;BME280;33947;46.804;134.252;2022-07-06T13:24:23;100292.19;;;24.30;87.62
46846;BME280;33947;46.804;134.252;2022-07-06T13:27:27;100290.19;;;24.32;87.61
46846;BME280;33947;46.804;134.252;2022-07-06T13:30:32;100292.78;;;24.33;87.59
46846;BME280;33947;46.804;134.252;2022-07-06T13:33:36;100284.00;;;24.20;87.85
46846;BME280;33947;46.804;134.252;2022-07-06T13:36:41;100306.31;;;24.23;87.96
46846;BME280;33947;46.804;134.252;2022-07-06T13:39:47;100298.28;;;24.12;88.75
46846;BME280;33947;46.804;134.252;2022-07-06T13:42:52;100298.53;;;24.09;88.87
46846;BME280;33947;46.804;134.252;2022-07-06T13:45:58;100311.50;;;24.05;89.13
46846;BME280;33947;46.804;134.252;2022-07-06T13:49:04;100301.28;;;23.97;89.69
46846;BME280;33947;46.804;134.252;2022-07-06T13:52:08;100311.03;;;24.00;89.24
46846;BME280;33947;46.804;134.252;2022-07-06T13:55:13;100309.56;;;23.96;89.37
46846;BME280;33947;46.804;134.252;2022-07-06T13:58:18;100298.56;;;23.97;89.42
46846;BME280;33947;46.804;134.252;2022-07-06T14:01:23;100290.25;;;23.89;89.45
46846;BME280;33947;46.804;134.252;2022-07-06T14:04:32;100277.78;;;23.77;89.83
46846;BME280;33947;46.804;134.252;2022-07-06T14:07:37;100298.22;;;23.81;89.95
46846;BME280;33947;46.804;134.252;2022-07-06T14:10:42;100294.63;;;23.80;89.87
46846;BME280;33947;46.804;134.252;2022-07-06T14:13:46;100296.78;;;23.55;91.43
46846;BME280;33947;46.804;134.252;2022-07-06T14:16:51;100300.84;;;23.71;90.39
46846;BME280;33947;46.804;134.252;2022-07-06T14:19:55;100289.16;;;23.70;90.66
46846;BME280;33947;46.804;134.252;2022-07-06T14:23:00;100291.72;;;23.72;90.29
46846;BME280;33947;46.804;134.252;2022-07-06T14:26:05;100286.19;;;23.74;90.33
46846;BME280;33947;46.804;134.252;2022-07-06T14:29:09;100283.53;;;23.41;93.47
46846;BME280;33947;46.804;134.252;2022-07-06T14:32:14;100285.06;;;23.55;91.75
46846;BME280;33947;46.804;134.252;2022-07-06T14:35:19;100288.69;;;23.65;90.53
46846;BME280;33947;46.804;134.252;2022-07-06T14:38:23;100296.56;;;23.68;90.79
46846;BME280;33947;46.804;134.252;2022-07-06T14:41:28;100294.25;;;23.64;90.94
46846;BME280;33947;46.804;134.252;2022-07-06T14:44:32;100295.44;;;23.71;90.65
46846;BME280;33947;46.804;134.252;2022-07-06T14:47:37;100292.00;;;23.69;90.56
46846;BME280;33947;46.804;134.252;2022-07-06T14:50:41;100277.97;;;23.42;92.60
46846;BME280;33947;46.804;134.252;2022-07-06T14:53:46;100267.66;;;23.58;91.03
46846;BME280;33947;46.804;134.252;2022-07-06T14:56:51;100262.78;;;23.51;91.11
46846;BME280;33947;46.804;134.252;2022-07-06T14:59:56;100265.53;;;23.61;92.24
46846;BME280;33947;46.804;134.252;2022-07-06T15:03:00;100271.81;;;23.83;91.92
46846;BME280;33947;46.804;134.252;2022-07-06T15:06:05;100276.13;;;24.07;91.14
46846;BME280;33947;46.804;134.252;2022-07-06T15:09:24;100268.63;;;24.30;90.99
46846;BME280;33947;46.804;134.252;2022-07-06T15:12:32;100276.25;;;24.46;90.73
46846;BME280;33947;46.804;134.252;2022-07-06T15:15:37;100280.41;;;24.60;90.87
46846;BME280;33947;46.804;134.252;2022-07-06T15:19:02;100279.56;;;24.60;91.57
46846;BME280;33947;46.804;134.252;2022-07-06T15:22:07;100289.59;;;24.69;91.55
46846;BME280;33947;46.804;134.252;2022-07-06T15:25:11;100304.16;;;24.68;92.08
46846;BME280;33947;46.804;134.252;2022-07-06T15:28:16;100293.00;;;24.61;92.27
46846;BME280;33947;46.804;134.252;2022-07-06T15:31:23;100297.97;;;24.56;92.58
46846;BME280;33947;46.804;134.252;2022-07-06T15:34:28;100299.53;;;24.49;93.17
46846;BME280;33947;46.804;134.252;2022-07-06T15:37:33;100309.56;;;24.58;92.74
46846;BME280;33947;46.804;134.252;2022-07-06T15:40:38;100304.44;;;24.65;92.26
46846;BME280;33947;46.804;134.252;2022-07-06T15:43:45;100284.28;;;24.57;92.85
46846;BME280;33947;46.804;134.252;2022-07-06T15:46:58;100300.09;;;24.42;93.91
46846;BME280;33947;46.804;134.252;2022-07-06T15:50:07;100308.47;;;24.30;94.69
46846;BME280;33947;46.804;134.252;2022-07-06T15:53:12;100290.13;;;24.12;95.65
46846;BME280;33947;46.804;134.252;2022-07-06T15:56:17;100293.56;;;23.93;95.96
46846;BME280;33947;46.804;134.252;2022-07-06T15:59:21;100272.38;;;23.55;96.93
46846;BME280;33947;46.804;134.252;2022-07-06T16:02:27;100301.25;;;23.66;95.83
46846;BME280;33947;46.804;134.252;2022-07-06T16:05:31;100306.34;;;23.60;95.99
46846;BME280;33947;46.804;134.252;2022-07-06T16:08:56;100292.06;;;23.58;94.77
46846;BME280;33947;46.804;134.252;2022-07-06T16:12:01;100300.94;;;23.60;94.73
46846;BME280;33947;46.804;134.252;2022-07-06T16:15:06;100283.13;;;23.46;94.78
46846;BME280;33947;46.804;134.252;2022-07-06T16:18:11;100292.59;;;23.51;94.16
46846;BME280;33947;46.804;134.252;2022-07-06T16:21:16;100316.59;;;23.56;94.38
46846;BME280;33947;46.804;134.252;2022-07-06T16:24:21;100319.44;;;23.33;95.26
46846;BME280;33947;46.804;134.252;2022-07-06T16:27:25;100321.69;;;23.49;94.44